Time;durP1;ratioP1;P1;durP2;ratioP2;P2;SDS_P1;SDS_P2;PMS_P1;PMS_P2;Temp;Humidity;BMP_temperature;BMP_pressure;BME280_temperature;BME280_humidity;BME280_pressure;Samples;Min_cycle;Max_cycle;Signal;HPM_P1;HPM_P2
2022/12/29 00:00:59;;;;;;;0.87;0.53;;;;;;;7.16;75.19;99195.75;10401318;28;20768;-86
2022/12/29 00:06:22;;;;;;;0.57;0.50;;;;;;;6.74;76.16;99198.50;10409586;28;20266;-82
2022/12/29 00:11:44;;;;;;;0.20;0.20;;;;;;;6.93;75.34;99190.44;10416745;28;20201;-80
2022/12/29 00:17:06;;;;;;;0.80;0.33;;;;;;;7.06;74.81;99177.34;10418553;28;20250;-81
2022/12/29 00:45:12;;;;;;;0.97;0.33;;;;;;;6.78;78.17;99171.47;10431234;28;20201;-80
2022/12/29 00:50:34;;;;;;;0.20;0.20;;;;;;;7.35;76.73;99151.25;10448690;27;20198;-85
2022/12/29 00:55:56;;;;;;;0.20;0.20;;;;;;;7.02;78.23;99135.22;10349950;28;20262;-81
2022/12/29 01:01:18;;;;;;;0.40;0.20;;;;;;;7.35;75.92;99123.22;10352491;28;20218;-80
2022/12/29 01:06:41;;;;;;;0.20;0.20;;;;;;;7.58;75.41;99134.94;10408927;28;20212;-80
2022/12/29 01:12:04;;;;;;;0.10;0.10;;;;;;;7.14;78.33;99128.03;10389554;28;20194;-80
2022/12/29 01:17:26;;;;;;;0.10;0.10;;;;;;;6.82;80.75;99130.38;10386279;28;20247;-81
2022/12/29 01:22:48;;;;;;;0.10;0.10;;;;;;;7.43;78.06;99135.53;10399199;28;20225;-81
2022/12/29 01:28:10;;;;;;;0.87;0.20;;;;;;;7.31;77.82;99128.72;10386251;28;20263;-81
2022/12/29 01:33:33;;;;;;;0.87;0.10;;;;;;;7.35;78.44;99112.00;10385558;28;20194;-80
2022/12/29 01:38:56;;;;;;;0.20;0.10;;;;;;;8.03;75.41;99118.09;10388732;28;20228;-80
2022/12/29 01:44:46;;;;;;;0.40;0.10;;;;;;;7.91;75.99;99129.28;10398702;28;20230;-81
2022/12/29 01:50:12;;;;;;;0.57;0.10;;;;;;;8.02;75.66;99111.66;10399593;28;20198;-81
2022/12/29 01:55:41;;;;;;;0.73;0.10;;;;;;;7.58;76.31;99115.31;10432027;28;20268;-81
2022/12/29 02:01:04;;;;;;;0.37;0.10;;;;;;;8.07;74.32;99099.41;10453619;28;20224;-83
2022/12/29 02:06:33;;;;;;;0.40;0.10;;;;;;;7.97;74.19;99105.44;10433221;28;20679;-87
2022/12/29 02:11:56;;;;;;;0.10;0.10;;;;;;;7.46;75.99;99087.97;10413323;28;20602;-80
2022/12/29 02:17:32;;;;;;;0.00;0.00;;;;;;;7.04;77.06;99083.63;10401613;28;20189;-82
2022/12/29 02:23:06;;;;;;;0.03;0.03;;;;;;;7.84;74.18;99068.13;10424305;28;20229;-85
2022/12/29 02:28:41;;;;;;;0.00;0.00;;;;;;;7.34;74.97;99066.34;10371795;28;20190;-81
2022/12/29 02:34:22;;;;;;;0.53;0.00;;;;;;;7.37;73.51;99056.44;10437077;28;20250;-81
2022/12/29 02:39:57;;;;;;;0.10;0.10;;;;;;;7.78;71.43;99065.91;10391922;28;20662;-80
2022/12/29 02:45:30;;;;;;;0.27;0.10;;;;;;;7.75;72.30;99064.63;10414383;28;20275;-81
2022/12/29 02:50:58;;;;;;;0.90;0.10;;;;;;;8.68;67.76;99060.91;10388552;28;20474;-82
2022/12/29 02:56:21;;;;;;;0.17;0.10;;;;;;;7.70;71.67;99059.25;10389477;28;20270;-80
2022/12/29 03:02:17;;;;;;;0.10;0.10;;;;;;;8.31;68.85;99046.06;10409583;28;20226;-80
2022/12/29 03:08:04;;;;;;;0.00;0.00;;;;;;;8.27;67.80;99053.56;10438537;28;20197;-81
2022/12/29 03:19:22;;;;;;;0.97;0.13;;;;;;;8.25;67.71;99067.13;10393586;28;20205;-81
2022/12/29 03:24:47;;;;;;;0.10;0.10;;;;;;;8.70;65.35;99054.94;10409466;28;20614;-81
2022/12/29 03:30:10;;;;;;;0.30;0.10;;;;;;;8.30;66.87;99047.25;10416402;28;20258;-81
2022/12/29 03:35:36;;;;;;;0.40;0.10;;;;;;;7.77;67.91;99059.47;10404453;28;20222;-81
2022/12/29 03:41:00;;;;;;;3.03;0.20;;;;;;;8.20;68.17;99041.28;10443862;28;20221;-87
2022/12/29 03:46:23;;;;;;;0.40;0.20;;;;;;;8.02;68.20;99040.69;10406359;28;20201;-80
2022/12/29 03:51:45;;;;;;;0.67;0.10;;;;;;;7.69;69.26;99041.59;10402080;28;20201;-80
2022/12/29 03:57:12;;;;;;;1.20;0.10;;;;;;;8.21;68.51;99043.75;10409054;28;20233;-80
2022/12/29 04:02:39;;;;;;;0.30;0.10;;;;;;;7.71;73.32;99028.03;10427696;28;20594;-79
2022/12/29 04:08:01;;;;;;;0.40;0.10;;;;;;;7.43;74.39;99032.63;10440951;28;20552;-80
2022/12/29 04:13:23;;;;;;;0.47;0.20;;;;;;;7.51;74.26;99026.09;10351019;28;20224;-86
2022/12/29 04:18:56;;;;;;;1.27;0.10;;;;;;;7.15;76.31;99024.00;10400497;28;20206;-80
2022/12/29 04:24:18;;;;;;;1.23;0.10;;;;;;;7.57;74.97;99001.50;10418446;28;20270;-80
2022/12/29 04:29:40;;;;;;;0.97;0.53;;;;;;;7.80;73.96;98985.88;10442639;28;20209;-81
2022/12/29 04:35:17;;;;;;;0.20;0.00;;;;;;;7.50;73.23;98979.59;10436148;28;20218;-80
2022/12/29 04:40:41;;;;;;;2.37;0.20;;;;;;;7.88;71.24;98970.06;10436481;28;20201;-78
2022/12/29 04:46:04;;;;;;;0.83;0.10;;;;;;;8.20;69.83;98974.75;10410079;28;20201;-81
2022/12/29 04:51:32;;;;;;;0.30;0.17;;;;;;;7.97;70.09;98982.00;10404592;28;20526;-79
2022/12/29 04:56:54;;;;;;;0.30;0.10;;;;;;;8.50;67.34;98994.09;10409037;28;20221;-81
2022/12/29 05:02:18;;;;;;;0.10;0.10;;;;;;;7.78;69.91;98978.97;10392107;28;20275;-80
2022/12/29 05:07:41;;;;;;;0.30;0.13;;;;;;;8.16;67.73;99004.69;10422275;28;20625;-79
2022/12/29 05:13:05;;;;;;;0.60;0.20;;;;;;;8.97;64.39;98997.97;10428401;28;20267;-79
2022/12/29 05:18:27;;;;;;;0.53;0.10;;;;;;;8.86;63.83;98985.63;10430820;28;20201;-79
2022/12/29 05:23:49;;;;;;;0.30;0.20;;;;;;;8.84;63.84;98993.56;10420180;28;20221;-80
2022/12/29 05:29:12;;;;;;;0.10;0.10;;;;;;;8.78;63.20;98995.81;10432965;28;20669;-79
2022/12/29 05:34:34;;;;;;;2.70;0.30;;;;;;;8.53;62.67;98988.59;10414971;28;20499;-81
2022/12/29 05:39:59;;;;;;;0.93;0.10;;;;;;;8.96;61.51;98999.16;10396883;28;20865;-81
2022/12/29 05:45:22;;;;;;;0.30;0.10;;;;;;;8.69;62.31;98997.13;10409425;28;20572;-81
2022/12/29 05:51:00;;;;;;;0.87;0.10;;;;;;;8.65;61.42;99024.28;10453602;28;20617;-81
2022/12/29 05:56:27;;;;;;;0.10;0.10;;;;;;;9.05;60.96;99010.22;10403726;28;20281;-80
2022/12/29 06:01:49;;;;;;;2.27;0.40;;;;;;;8.67;61.39;99010.72;10438593;28;21028;-81
2022/12/29 06:07:12;;;;;;;0.60;0.10;;;;;;;8.81;60.36;99013.13;10427693;28;20470;-82
2022/12/29 06:12:34;;;;;;;0.30;0.10;;;;;;;9.35;58.93;99024.75;10348802;28;20186;-81
2022/12/29 06:17:57;;;;;;;0.87;0.20;;;;;;;9.34;59.20;99014.66;10395543;28;20222;-82
2022/12/29 06:23:19;;;;;;;1.17;0.10;;;;;;;8.60;60.62;99016.09;10384774;28;20389;-81
2022/12/29 06:28:41;;;;;;;2.90;0.20;;;;;;;9.49;57.77;99025.94;10371275;28;20543;-81
2022/12/29 06:34:03;;;;;;;1.60;0.30;;;;;;;9.11;58.41;99031.28;10397476;28;20286;-85
2022/12/29 06:39:25;;;;;;;1.33;0.47;;;;;;;9.34;57.36;99054.84;10399610;28;20229;-81
2022/12/29 06:44:49;;;;;;;3.90;0.30;;;;;;;9.14;58.21;99053.88;10399707;28;20249;-80
2022/12/29 06:50:12;;;;;;;1.87;0.37;;;;;;;9.01;58.52;99065.50;10422011;28;20232;-82
2022/12/29 06:55:34;;;;;;;0.60;0.20;;;;;;;8.68;59.18;99076.94;10397611;28;20241;-81
2022/12/29 07:00:56;;;;;;;0.73;0.20;;;;;;;9.37;56.63;99096.31;10402377;28;20668;-80
2022/12/29 07:06:18;;;;;;;0.83;0.20;;;;;;;8.63;58.57;99100.47;10389048;28;20660;-80
2022/12/29 07:11:40;;;;;;;0.97;0.20;;;;;;;9.17;56.81;99088.06;10380021;28;20229;-80
2022/12/29 07:17:05;;;;;;;1.03;0.20;;;;;;;8.70;58.99;99094.28;10418238;28;20222;-81
2022/12/29 07:22:27;;;;;;;1.13;0.20;;;;;;;8.50;59.08;99095.19;10408484;28;20214;-79
2022/12/29 07:27:49;;;;;;;0.43;0.10;;;;;;;8.52;59.44;99106.88;10433766;28;20334;-80
2022/12/29 07:33:11;;;;;;;3.07;0.27;;;;;;;8.77;58.86;99106.53;10426882;28;20233;-80
2022/12/29 07:38:33;;;;;;;2.90;0.30;;;;;;;8.63;58.52;99106.09;10350222;28;20302;-79
2022/12/29 07:43:55;;;;;;;1.43;0.40;;;;;;;8.33;59.30;99125.16;10417032;28;20292;-80
2022/12/29 07:49:53;;;;;;;0.83;0.20;;;;;;;8.63;58.04;99108.06;10372995;28;20229;-81
2022/12/29 07:55:16;;;;;;;1.40;0.30;;;;;;;8.07;59.22;99130.28;10421981;28;20298;-86
2022/12/29 08:00:38;;;;;;;2.63;0.20;;;;;;;8.22;57.83;99146.44;10431128;28;20540;-80
2022/12/29 08:06:00;;;;;;;1.47;0.30;;;;;;;8.40;56.19;99161.06;10408103;28;20314;-81
2022/12/29 08:11:23;;;;;;;1.73;0.30;;;;;;;8.15;56.68;99162.19;10429334;28;20235;-80
2022/12/29 08:16:45;;;;;;;2.23;0.30;;;;;;;8.16;57.39;99169.44;10429491;28;20200;-80
2022/12/29 08:22:07;;;;;;;2.17;0.33;;;;;;;9.03;53.66;99176.41;10360846;28;20313;-81
2022/12/29 08:27:29;;;;;;;1.40;0.20;;;;;;;8.26;55.77;99167.00;10415487;28;20225;-81
2022/12/29 08:32:51;;;;;;;2.67;0.30;;;;;;;8.64;54.83;99169.53;10387523;28;20217;-82
2022/12/29 08:38:13;;;;;;;3.43;0.30;;;;;;;8.86;53.66;99162.63;10398470;28;20252;-82
2022/12/29 08:43:35;;;;;;;2.63;0.60;;;;;;;8.24;55.55;99177.75;10410146;28;20260;-79
2022/12/29 08:48:57;;;;;;;2.33;0.27;;;;;;;8.28;54.78;99184.31;10375624;28;20249;-80
2022/12/29 08:54:19;;;;;;;2.80;0.40;;;;;;;8.34;55.48;99190.53;10411796;28;20217;-81
2022/12/29 08:59:42;;;;;;;4.03;0.50;;;;;;;8.63;54.50;99173.50;10437644;28;20232;-81
2022/12/29 09:05:05;;;;;;;4.50;0.63;;;;;;;8.69;54.39;99194.59;10440368;28;20225;-82
2022/12/29 09:10:27;;;;;;;4.67;0.40;;;;;;;8.21;58.54;99211.34;10414174;28;20281;-82
2022/12/29 09:15:58;;;;;;;4.23;0.60;;;;;;;7.47;61.37;99221.38;10446561;28;20624;-85
2022/12/29 09:21:20;;;;;;;3.23;0.67;;;;;;;7.88;60.10;99214.13;10398014;28;20201;-82
2022/12/29 09:26:42;;;;;;;4.27;0.50;;;;;;;7.37;61.33;99244.22;10453561;28;20252;-82
2022/12/29 09:32:04;;;;;;;1.97;0.30;;;;;;;7.36;59.57;99235.00;10410060;28;20478;-87
2022/12/29 09:37:27;;;;;;;3.80;0.80;;;;;;;8.08;57.45;99252.56;10445768;28;20231;-82
2022/12/29 09:43:37;;;;;;;2.93;0.63;;;;;;;8.44;57.08;99247.06;10436139;28;20241;-81
2022/12/29 09:49:06;;;;;;;3.60;0.57;;;;;;;8.39;56.74;99258.50;10354676;28;20267;-84
2022/12/29 09:54:45;;;;;;;2.03;0.60;;;;;;;8.23;56.24;99239.88;10410199;28;20224;-84
2022/12/29 10:00:16;;;;;;;5.30;0.97;;;;;;;8.32;55.43;99244.22;10413818;28;20233;-84
2022/12/29 10:05:49;;;;;;;4.93;0.87;;;;;;;8.89;55.34;99239.75;10447576;28;20876;-83
2022/12/29 10:11:32;;;;;;;4.73;0.50;;;;;;;8.53;56.57;99240.50;10413916;28;20245;-83
2022/12/29 10:17:02;;;;;;;5.30;0.80;;;;;;;8.12;57.22;99236.66;10435180;28;20224;-83
2022/12/29 10:22:47;;;;;;;2.33;0.50;;;;;;;8.07;57.35;99242.53;10401055;28;20236;-85
2022/12/29 10:28:17;;;;;;;4.10;0.50;;;;;;;8.10;56.06;99247.41;10398975;28;20224;-86
2022/12/29 10:33:41;;;;;;;2.97;0.80;;;;;;;8.67;53.76;99241.03;10416441;28;20282;-83
2022/12/29 10:39:13;;;;;;;6.67;0.73;;;;;;;8.20;53.98;99238.59;10396125;28;20256;-81
2022/12/29 10:44:35;;;;;;;4.00;0.50;;;;;;;8.36;53.23;99259.19;10411976;28;20236;-84
2022/12/29 10:49:58;;;;;;;2.77;0.63;;;;;;;8.81;50.55;99247.13;10380498;28;20258;-84
2022/12/29 10:55:33;;;;;;;5.30;1.10;;;;;;;9.07;50.21;99249.59;10396904;28;20309;-85
2022/12/29 11:00:55;;;;;;;6.00;0.67;;;;;;;8.75;51.18;99259.75;10383021;28;20222;-84
2022/12/29 11:06:25;;;;;;;5.90;1.30;;;;;;;8.51;51.52;99256.88;10379591;28;20245;-85
2022/12/29 11:11:48;;;;;;;5.33;1.20;;;;;;;8.33;51.04;99253.47;10338957;28;20229;-85
2022/12/29 11:17:16;;;;;;;4.33;0.67;;;;;;;8.64;51.03;99265.03;10361229;28;20275;-86
2022/12/29 11:22:43;;;;;;;4.20;0.50;;;;;;;8.55;50.61;99269.91;10410081;28;20259;-82
2022/12/29 11:28:16;;;;;;;3.47;0.60;;;;;;;8.25;51.79;99268.41;10372983;28;20225;-85
2022/12/29 11:33:40;;;;;;;2.70;0.50;;;;;;;8.03;52.14;99281.66;10440051;28;20218;-85
2022/12/29 11:39:02;;;;;;;7.80;0.93;;;;;;;8.13;52.08;99286.03;10419089;28;20286;-87
2022/12/29 11:44:25;;;;;;;5.67;0.93;;;;;;;8.13;52.01;99288.84;10399390;28;20338;-85
2022/12/29 11:49:56;;;;;;;1.90;0.30;;;;;;;9.14;49.57;99295.63;10418723;28;20233;-83
2022/12/29 11:55:21;;;;;;;1.70;0.60;;;;;;;8.40;51.92;99307.88;10411379;28;20233;-86
2022/12/29 12:00:45;;;;;;;3.73;0.40;;;;;;;7.98;51.84;99323.13;10415226;28;20282;-84
2022/12/29 12:06:12;;;;;;;3.43;0.50;;;;;;;8.46;50.85;99310.47;10402555;28;20260;-83
2022/12/29 12:11:37;;;;;;;4.13;0.80;;;;;;;8.71;50.81;99331.88;10398226;28;20278;-83
2022/12/29 12:17:04;;;;;;;4.53;1.27;;;;;;;8.07;51.86;99335.13;10406362;28;20201;-86
2022/12/29 12:22:47;;;;;;;3.30;0.60;;;;;;;7.89;53.10;99333.63;10409714;28;20197;-88
2022/12/29 12:28:32;;;;;;;3.70;0.47;;;;;;;8.47;51.04;99332.59;10395875;28;20201;-82
2022/12/29 12:33:59;;;;;;;3.10;0.30;;;;;;;7.81;51.71;99340.13;10363694;28;20626;-80
2022/12/29 12:39:28;;;;;;;2.87;0.40;;;;;;;8.37;50.84;99333.84;10414592;28;20314;-84
2022/12/29 12:45:14;;;;;;;6.27;0.67;;;;;;;8.11;51.54;99347.28;10423674;28;20765;-85
2022/12/29 12:51:26;;;;;;;4.30;0.93;;;;;;;8.29;50.86;99354.41;10373341;28;20621;-84
2022/12/29 12:57:14;;;;;;;4.33;0.70;;;;;;;8.54;50.42;99352.50;10348045;28;20217;-85
2022/12/29 13:02:36;;;;;;;4.87;0.70;;;;;;;8.58;50.33;99361.06;10406511;28;20233;-85
2022/12/29 13:08:24;;;;;;;4.67;0.80;;;;;;;8.00;52.35;99402.19;10403685;28;20255;-87
2022/12/29 13:14:02;;;;;;;5.63;0.80;;;;;;;8.67;50.11;99371.06;10388355;28;20209;-82
2022/12/29 13:20:00;;;;;;;3.93;0.50;;;;;;;8.26;50.91;99379.53;10382371;28;20274;-83
2022/12/29 13:25:29;;;;;;;6.40;0.90;;;;;;;8.04;51.58;99386.31;10380164;28;20257;-81
2022/12/29 13:31:20;;;;;;;4.63;0.80;;;;;;;7.88;52.22;99400.13;10415434;28;20285;-82
2022/12/29 13:36:59;;;;;;;4.37;0.97;;;;;;;8.36;51.33;99399.56;10415481;28;20303;-82
2022/12/29 13:42:22;;;;;;;3.63;1.03;;;;;;;8.04;51.99;99391.94;10421645;28;20193;-82
2022/12/29 13:47:51;;;;;;;4.03;0.60;;;;;;;8.42;50.75;99375.75;10402809;28;20627;-82
2022/12/29 13:53:24;;;;;;;6.07;0.90;;;;;;;8.47;50.80;99399.19;10410520;28;20295;-82
2022/12/29 13:59:11;;;;;;;4.07;0.67;;;;;;;7.81;53.75;99424.28;10388973;28;20229;-83
2022/12/29 14:04:34;;;;;;;3.40;0.70;;;;;;;7.87;53.43;99415.31;10344369;28;20267;-82
2022/12/29 14:09:57;;;;;;;3.93;0.73;;;;;;;7.91;52.82;99429.50;10390582;28;20634;-82
2022/12/29 14:15:22;;;;;;;3.20;0.67;;;;;;;8.00;52.93;99433.06;10387908;28;20253;-81
2022/12/29 14:20:54;;;;;;;2.73;0.50;;;;;;;8.41;51.95;99424.66;10394687;28;20238;-81
2022/12/29 14:26:34;;;;;;;4.00;0.90;;;;;;;7.98;52.61;99429.75;10393361;28;20296;-83
2022/12/29 14:31:57;;;;;;;6.43;0.50;;;;;;;7.88;52.75;99424.56;10409917;28;20225;-83
2022/12/29 14:37:27;;;;;;;3.83;0.70;;;;;;;8.61;51.42;99428.63;10403492;28;20248;-82
2022/12/29 14:42:51;;;;;;;3.37;0.63;;;;;;;8.21;51.81;99436.72;10390041;28;20229;-82
2022/12/29 14:48:41;;;;;;;3.77;0.50;;;;;;;7.60;52.53;99439.06;10395027;28;20231;-83
2022/12/29 14:54:39;;;;;;;4.63;0.60;;;;;;;8.39;50.42;99452.25;10404210;28;20300;-83
2022/12/29 15:00:17;;;;;;;3.70;0.70;;;;;;;7.93;51.63;99446.81;10400810;28;20220;-86
2022/12/29 15:05:46;;;;;;;5.03;0.73;;;;;;;8.50;50.13;99455.47;10416344;28;20245;-84
2022/12/29 15:11:15;;;;;;;5.03;0.80;;;;;;;7.96;51.37;99468.59;10399099;28;20249;-83
2022/12/29 15:16:38;;;;;;;4.93;0.70;;;;;;;8.47;49.59;99467.41;10398807;28;20231;-82
2022/12/29 15:22:00;;;;;;;2.73;0.63;;;;;;;8.02;51.17;99479.25;10388400;28;20270;-82
2022/12/29 15:27:25;;;;;;;2.73;0.67;;;;;;;7.49;52.64;99470.59;10390762;28;20338;-82
2022/12/29 15:32:49;;;;;;;4.57;0.53;;;;;;;8.43;49.13;99464.44;10413173;28;20300;-83
2022/12/29 15:38:19;;;;;;;3.60;0.47;;;;;;;8.43;49.62;99472.03;10498443;28;20244;-81
2022/12/29 15:43:47;;;;;;;4.73;0.40;;;;;;;7.69;51.26;99470.72;10519906;28;20242;-85
2022/12/29 15:49:13;;;;;;;7.87;2.20;;;;;;;7.96;50.76;99480.63;10520917;28;20793;-86
2022/12/29 15:54:36;;;;;;;4.43;0.60;;;;;;;7.86;51.01;99488.59;10518107;28;20238;-84
2022/12/29 16:00:00;;;;;;;2.90;0.60;;;;;;;7.97;49.85;99492.66;10526482;28;20217;-83
2022/12/29 16:05:23;;;;;;;1.97;0.77;;;;;;;8.05;50.00;99489.81;10520442;28;20338;-86
2022/12/29 16:10:45;;;;;;;4.70;0.60;;;;;;;8.13;49.77;99507.75;10520800;28;20753;-85
2022/12/29 16:16:28;;;;;;;2.63;1.10;;;;;;;7.74;51.16;99522.97;10514495;28;20223;-85
2022/12/29 16:21:52;;;;;;;5.17;1.17;;;;;;;8.00;49.93;99515.25;10512468;28;20226;-86
2022/12/29 16:27:22;;;;;;;4.10;0.83;;;;;;;7.64;52.14;99524.16;10519133;28;20598;-87
2022/12/29 16:32:49;;;;;;;2.67;0.50;;;;;;;7.90;50.49;99526.88;10522188;28;20197;-85
2022/12/29 16:38:22;;;;;;;4.07;0.80;;;;;;;7.35;51.74;99529.66;10389808;28;20245;-86
2022/12/29 16:43:44;;;;;;;5.90;0.67;;;;;;;7.36;52.24;99539.72;10339270;28;20230;-86
2022/12/29 16:49:15;;;;;;;4.03;0.80;;;;;;;8.21;50.10;99526.53;10390924;28;20222;-88
2022/12/29 16:54:49;;;;;;;4.73;1.00;;;;;;;7.76;50.91;99537.50;10378106;28;20648;-86
2022/12/29 17:00:20;;;;;;;3.10;0.90;;;;;;;7.33;52.83;99532.81;10403584;28;20231;-85
2022/12/29 17:05:42;;;;;;;2.67;0.60;;;;;;;7.63;51.13;99530.94;10404497;28;20248;-82
2022/12/29 17:16:46;;;;;;;3.33;0.73;;;;;;;7.82;50.52;99538.13;10445802;28;20346;-83
2022/12/29 17:22:15;;;;;;;7.63;1.33;;;;;;;7.78;50.43;99545.56;10405200;28;20248;-84
2022/12/29 17:27:41;;;;;;;2.83;0.93;;;;;;;7.30;51.22;99563.50;10416261;28;20791;-80
2022/12/29 17:33:07;;;;;;;5.67;0.87;;;;;;;7.28;50.55;99572.25;10405940;28;20305;-85
2022/12/29 17:38:31;;;;;;;5.33;1.00;;;;;;;7.86;49.80;99598.81;10424564;28;20558;-83
2022/12/29 17:43:53;;;;;;;4.00;0.83;;;;;;;7.27;51.78;99586.56;10349469;28;20239;-82
2022/12/29 17:49:17;;;;;;;5.47;1.40;;;;;;;7.13;52.23;99592.34;10415174;28;20289;-85
2022/12/29 17:54:49;;;;;;;8.20;1.17;;;;;;;7.42;50.25;99607.66;10425675;28;20294;-83
2022/12/29 18:00:22;;;;;;;0.87;0.30;;;;;;;7.22;54.36;99620.38;10392685;28;20246;-82
2022/12/29 18:05:46;;;;;;;2.20;0.50;;;;;;;6.72;60.38;99648.84;10464648;28;20237;-84
2022/12/29 18:11:21;;;;;;;3.57;0.77;;;;;;;6.83;62.16;99649.34;10499175;28;20226;-85
2022/12/29 18:16:43;;;;;;;2.30;0.60;;;;;;;5.78;65.67;99663.25;10506792;28;20222;-83
2022/12/29 18:22:05;;;;;;;2.63;0.80;;;;;;;5.90;66.58;99683.06;10441000;28;20276;-85
2022/12/29 18:27:27;;;;;;;1.27;0.90;;;;;;;6.05;66.03;99651.06;10487790;28;20625;-82
2022/12/29 18:32:49;;;;;;;8.37;4.23;;;;;;;6.01;67.15;99648.09;10502658;28;20223;-82
2022/12/29 18:38:12;;;;;;;11.57;6.73;;;;;;;5.95;66.89;99652.16;10486158;28;20242;-85
2022/12/29 18:43:34;;;;;;;7.30;2.83;;;;;;;6.28;65.27;99653.47;10475079;28;20258;-85
2022/12/29 18:48:56;;;;;;;4.07;0.83;;;;;;;6.18;65.88;99655.72;10496737;28;20242;-84
2022/12/29 18:54:28;;;;;;;4.23;1.30;;;;;;;5.84;67.53;99664.78;10466353;28;20280;-83
2022/12/29 18:59:51;;;;;;;8.13;1.30;;;;;;;5.76;66.87;99674.75;10507707;28;20945;-84
2022/12/29 19:05:37;;;;;;;6.73;1.53;;;;;;;5.72;66.77;99681.31;10514413;28;20238;-83
2022/12/29 19:10:59;;;;;;;8.77;1.50;;;;;;;6.38;64.13;99691.56;10483620;28;20202;-82
2022/12/29 19:16:23;;;;;;;5.30;1.10;;;;;;;5.83;65.69;99689.13;10482953;28;20198;-82
2022/12/29 19:21:45;;;;;;;5.63;1.20;;;;;;;5.99;64.14;99692.34;10507429;28;20226;-81
2022/12/29 19:27:08;;;;;;;9.57;1.63;;;;;;;5.76;64.53;99694.31;10495384;28;20677;-82
2022/12/29 19:32:30;;;;;;;11.37;1.87;;;;;;;5.79;63.24;99704.06;10525725;28;20638;-84
2022/12/29 19:37:52;;;;;;;8.13;1.60;;;;;;;6.18;62.03;99700.50;10504293;28;20218;-84
2022/12/29 19:43:15;;;;;;;9.57;1.60;;;;;;;5.70;62.80;99712.38;10524603;28;20195;-83
2022/12/29 19:48:37;;;;;;;11.47;2.20;;;;;;;6.22;60.53;99712.72;10485749;28;20631;-83
2022/12/29 19:53:59;;;;;;;8.43;1.63;;;;;;;5.52;61.54;99722.59;10514756;28;20271;-82
2022/12/29 19:59:22;;;;;;;8.57;2.47;;;;;;;6.11;58.62;99717.75;10491288;28;20199;-83
2022/12/29 20:04:47;;;;;;;9.77;1.90;;;;;;;6.14;58.58;99719.91;10513806;28;20268;-81
2022/12/29 20:10:09;;;;;;;5.23;1.50;;;;;;;5.53;60.42;99738.25;10489604;28;20305;-83
2022/12/29 20:15:31;;;;;;;10.10;1.70;;;;;;;6.10;58.99;99738.47;10489727;28;20245;-82
2022/12/29 20:20:53;;;;;;;7.47;1.53;;;;;;;5.82;59.23;99745.38;10495308;28;20292;-81
2022/12/29 20:26:21;;;;;;;8.30;1.63;;;;;;;5.92;59.22;99753.50;10496218;28;20237;-85
2022/12/29 20:31:44;;;;;;;6.90;1.53;;;;;;;5.84;59.78;99751.47;10471545;28;20235;-83
2022/12/29 20:37:07;;;;;;;6.70;1.37;;;;;;;5.93;59.27;99766.34;10494957;28;20292;-86
2022/12/29 20:42:29;;;;;;;10.10;1.93;;;;;;;5.81;59.83;99772.50;10519012;28;20229;-84
2022/12/29 20:47:53;;;;;;;6.80;1.30;;;;;;;5.74;59.91;99757.31;10523446;28;20263;-86
2022/12/29 20:53:15;;;;;;;8.43;2.27;;;;;;;5.67;60.06;99773.69;10505309;28;20284;-86
2022/12/29 20:58:39;;;;;;;7.00;1.60;;;;;;;5.62;60.19;99762.66;10514265;28;20528;-86
2022/12/29 21:04:02;;;;;;;7.23;1.47;;;;;;;5.47;60.97;99769.44;10493214;28;20249;-87
2022/12/29 21:09:24;;;;;;;8.43;1.77;;;;;;;5.50;59.82;99772.41;10516288;28;20234;-86
2022/12/29 21:14:46;;;;;;;8.93;1.73;;;;;;;5.83;59.26;99780.59;10494026;28;20612;-85
2022/12/29 21:20:09;;;;;;;7.53;1.23;;;;;;;5.91;59.68;99791.00;10493239;28;20227;-84
2022/12/29 21:25:36;;;;;;;7.67;1.23;;;;;;;5.74;58.63;99785.28;10518346;28;20241;-86
2022/12/29 21:31:09;;;;;;;7.40;1.37;;;;;;;5.79;58.30;99790.75;10516636;28;20252;-90
2022/12/29 21:36:32;;;;;;;8.40;1.03;;;;;;;5.40;59.39;99803.38;10547853;28;20566;-87
2022/12/29 21:41:59;;;;;;;10.03;1.53;;;;;;;5.31;59.78;99804.44;10497711;28;20198;-85
2022/12/29 21:47:21;;;;;;;10.63;1.40;;;;;;;4.96;61.13;99806.03;10495839;28;20246;-84
2022/12/29 21:52:43;;;;;;;7.53;1.40;;;;;;;5.61;58.84;99808.53;10495644;28;20226;-82
2022/12/29 22:15:12;;;;;;;9.67;1.33;;;;;;;5.69;57.83;99816.97;10500353;28;20229;-85
2022/12/29 22:20:35;;;;;;;7.03;1.87;;;;;;;6.05;57.36;99825.34;10493549;28;20230;-90
2022/12/29 22:26:02;;;;;;;7.83;1.80;;;;;;;5.85;57.30;99831.44;10490136;28;20242;-84
2022/12/29 22:31:27;;;;;;;11.27;1.70;;;;;;;5.06;60.61;99834.56;10494414;28;20229;-84
2022/12/29 22:36:50;;;;;;;7.30;1.30;;;;;;;5.50;58.69;99852.66;10508084;28;20251;-82
2022/12/29 22:42:12;;;;;;;8.43;1.60;;;;;;;5.73;58.05;99864.72;10504717;28;20748;-82
2022/12/29 22:47:36;;;;;;;10.40;1.80;;;;;;;5.44;59.00;99871.50;10503683;28;20194;-81
2022/12/29 22:52:59;;;;;;;6.53;1.43;;;;;;;5.73;58.36;99873.09;10502914;28;20663;-82
2022/12/29 22:58:21;;;;;;;5.73;2.23;;;;;;;5.59;58.45;99868.38;10481766;28;20514;-81
2022/12/29 23:03:47;;;;;;;6.50;1.40;;;;;;;6.10;56.58;99878.38;10511156;28;20540;-82
2022/12/29 23:09:19;;;;;;;5.67;1.10;;;;;;;5.40;58.28;99881.63;10507629;28;20519;-84
2022/12/29 23:14:42;;;;;;;6.30;1.20;;;;;;;5.59;57.54;99895.50;10493750;28;20242;-81
2022/12/29 23:20:06;;;;;;;9.03;1.77;;;;;;;5.53;57.63;99894.78;10510922;28;20553;-82
2022/12/29 23:25:29;;;;;;;9.40;1.63;;;;;;;5.21;59.38;99906.09;10494183;28;20290;-89
2022/12/29 23:30:51;;;;;;;10.30;1.30;;;;;;;5.18;59.25;99920.66;10512755;28;20203;-90
2022/12/29 23:36:14;;;;;;;8.40;1.90;;;;;;;5.11;59.14;99928.63;10506088;28;20288;-81
2022/12/29 23:41:36;;;;;;;12.07;1.53;;;;;;;5.30;58.77;99946.13;10491869;28;20608;-81
2022/12/29 23:46:59;;;;;;;7.53;1.70;;;;;;;5.65;57.28;99958.53;10484194;28;20254;-82
2022/12/29 23:52:21;;;;;;;10.30;1.50;;;;;;;5.40;58.18;99965.47;10473593;28;20234;-83
2022/12/29 23:57:43;;;;;;;8.83;1.87;;;;;;;5.77;56.68;99958.00;10479362;28;20689;-82
